Tuesday, September 18, 2018, 11:12 PM EDT
Back to Local

KFVE, Northern Aroostook Regional

Location: Saint Agatha, ME, United States Lat: 47.283
Local Time: 11:12 PM EDT ( 3:12 GMT) Lon: -68.3
Time Zone: US/Eastern Elev: 987 ft

Show me the last for .
Show Coded

Time T Td Feel RH Dir Speed Gust Alt SLP Vis Weather Sky Remarks
2018-09-18 22:53 47 43 42 86 50° 12 - 29.96 29.96 10 OVC010 None
2018-09-18 21:53 48 43 41 82 60° 10 21 29.96 29.96 10 OVC012 None
2018-09-18 20:53 49 44 42 83 60° 8 18 29.95 29.95 10 OVC013 None
2018-09-18 20:15 49 44 44 83 60° 12 - 29.93 - 10 BKN011 BKN028 OVC033 None
2018-09-18 20:04 49 44 42 83 60° 9 18 29.93 - 7 SCT011 BKN024 OVC033 None
2018-09-18 19:53 49 44 42 83 40° 13 21 29.92 29.93 4 HZ BKN012 OVC033 1-hr Precip Total: 0.01"
6-hr Precip Total (8pm): 0.06"
6-hr Min Temp (8pm): 48.9°F
6-hr Max Temp (8pm): 54.0°F
2018-09-18 19:33 49 44 42 83 50° 10 20 29.93 - 3 HZ OVC011 1-hr Precip Total: 0.01"
2018-09-18 18:53 49 45 45 86 50° 9 - 29.92 29.92 2 BR OVC008 1-hr Precip Total: Trace
2018-09-18 18:46 49 45 45 86 50° 9 - 29.91 - 1 BR OVC008 1-hr Precip Total: Trace
2018-09-18 18:32 49 45 42 86 40° 12 18 29.91 - 1 BR OVC008 1-hr Precip Total: Trace
2018-09-18 18:14 50 46 44 86 50° 10 17 29.89 - 1 -RA BR OVC008 1-hr Precip Total: Trace
2018-09-18 18:08 50 45 46 82 50° 12 - 29.89 - 2 HZ OVC008 None
2018-09-18 17:53 50 46 43 86 50° 12 21 29.87 29.87 6 BR OVC008 None
2018-09-18 17:37 50 46 44 86 60° 12 18 29.87 - 10 OVC008 None
2018-09-18 16:53 51 46 - 82 50° 15 24 29.86 29.85 10 BKN010 OVC013 1-hr Precip Total: Trace
6-hr Precip Total (5pm): 0.05"
2018-09-18 15:53 51 46 - 82 50° 13 20 29.85 29.85 7 -RA SCT006 BKN012 OVC019 1-hr Precip Total: 0.04"
2018-09-18 15:33 52 48 - 86 30° 8 - 29.85 - 3 -RA BR BKN006 OVC020 1-hr Precip Total: 0.04"
2018-09-18 15:22 52 48 - 86 30° 6 - 29.85 - 2 RA BR BKN006 OVC018 1-hr Precip Total: 0.03"
2018-09-18 15:14 52 47 - 82 50° 9 - 29.84 - 3 -RA FEW006 BKN015 OVC021 1-hr Precip Total: 0.02"
2018-09-18 15:05 52 47 - 82 50° 13 22 29.84 - 2 RA BKN015 OVC020 1-hr Precip Total: 0.01"
2018-09-18 14:53 52 47 - 82 60° 13 - 29.84 29.83 5 -RA SCT006 OVC014 1-hr Precip Total: 0.01"
2018-09-18 14:33 54 50 - 86 60° 8 - 29.83 - 4 -RA BR OVC007 1-hr Precip Total: Trace
2018-09-18 14:23 54 50 - 86 40° 6 - 29.83 - 3 BR BKN005 OVC009 1-hr Precip Total: Trace
2018-09-18 14:15 54 50 - 86 60° 8 - 29.82 - 9 OVC007 1-hr Precip Total: Trace
2018-09-18 14:08 54 50 - 86 60° 8 - 29.82 - 2 -RA BR BKN003 OVC009 1-hr Precip Total: Trace
2018-09-18 14:05 53 49 - 85 40° 7 - 29.82 - 1 -RA BR OVC003 1-hr Precip Total: Trace
2018-09-18 13:53 52 49 - 89 350° 8 - 29.82 29.81 0 -RA BR VV003 1-hr Precip Total: 0.01"
6-hr Precip Total (2pm): 0.12"
6-hr Min Temp (2pm): 52.0°F
6-hr Max Temp (2pm): 57.0°F
2018-09-18 13:36 53 49 - 85 350° 8 - 29.82 - 0 BR OVC003 1-hr Precip Total: Trace
2018-09-18 13:29 53 49 - 85 340° 7 - 29.82 - 1 BR OVC003 1-hr Precip Total: Trace
2018-09-18 13:18 52 49 - 89 360° 8 - 29.81 - 1 BR OVC003 1-hr Precip Total: Trace
2018-09-18 13:10 52 48 - 86 350° 10 - 29.82 - 2 -RA BR OVC003 1-hr Precip Total: Trace
2018-09-18 13:02 52 48 - 86 360° 10 - 29.81 - 3 -RA BR OVC003 1-hr Precip Total: Trace
2018-09-18 12:53 52 49 - 89 350° 12 - 29.82 29.80 2 -RA BR OVC003 1-hr Precip Total: 0.01"
2018-09-18 12:50 52 48 - 87 350° 9 - 29.82 - 1 -RA BR OVC003 1-hr Precip Total: 0.01"
2018-09-18 12:14 53 49 - 85 330° 9 - 29.82 - 0 BR OVC003 None
2018-09-18 12:07 53 50 - 89 330° 8 - 29.82 - 1 BR OVC003 None
2018-09-18 11:53 54 50 - 86 330° 10 - 29.82 29.81 1 BR OVC003 1-hr Precip Total: 0.01"
2018-09-18 11:49 54 48 - 81 340° 8 - 29.81 - 2 BR OVC003 1-hr Precip Total: 0.01"
2018-09-18 10:53 53 49 - 85 340° 13 - 29.80 29.79 10 OVC004 6-hr Precip Total (11am): 0.09"
2018-09-18 10:40 53 49 - 85 350° 8 - 29.80 - 10 OVC004 None
2018-09-18 09:53 54 50 - 86 350° 7 - 29.78 29.77 10 OVC005 1-hr Precip Total: 0.04"
2018-09-18 09:41 54 49 - 83 350° 9 - 29.77 - 10 BKN004 OVC015 1-hr Precip Total: 0.04"
2018-09-18 09:27 54 50 - 86 340° 8 - 29.77 - 4 -RA BR BKN006 OVC015 1-hr Precip Total: 0.04"
2018-09-18 09:00 56 51 - 83 330° 8 - 29.76 - 10 SCT004 OVC013 1-hr Precip Total: Trace
2018-09-18 08:53 56 51 - 83 330° 12 - 29.76 29.74 5 -RA BKN004 OVC013 1-hr Precip Total: 0.05"
2018-09-18 08:49 55 52 - 87 340° 13 - 29.76 - 4 -RA BR BKN004 OVC013 1-hr Precip Total: 0.05"
2018-09-18 08:35 56 52 - 86 320° 10 - 29.76 - 2 +RA BR BKN003 OVC012 1-hr Precip Total: 0.03"
2018-09-18 08:17 57 53 - 86 330° 10 - 29.75 - 10 BKN005 OVC012 1-hr Precip Total: 0.01"
2018-09-18 07:53 57 53 - 86 350° 9 - 29.74 29.72 5 -RA BR BKN004 OVC009 1-hr Precip Total: 0.06"
6-hr Precip Total (8am): 0.12"
24-hr Precip Total (8am): 0.12"
6-hr Min Temp (8am): 57.0°F
6-hr Max Temp (8am): 71.1°F
2018-09-18 07:35 58 53 - 83 360° 7 - 29.73 - 3 -RA BKN004 OVC012 1-hr Precip Total: 0.05"
2018-09-18 07:25 58 54 - 86 20° 8 - 29.74 - 2 -RA BR BKN003 OVC015 1-hr Precip Total: 0.05"
2018-09-18 07:21 58 54 - 86 360° 7 - 29.74 - 1 RA BR BKN003 OVC015 1-hr Precip Total: 0.05"
2018-09-18 07:17 58 54 - 86 350° 6 - 29.74 - 1 +RA BR SCT003 OVC015 1-hr Precip Total: 0.04"
2018-09-18 07:13 58 54 - 86 10° 8 - 29.74 - 1 -RA BR FEW003 OVC015 1-hr Precip Total: 0.02"
2018-09-18 07:08 58 54 - 86 340° 8 - 29.74 - 3 -RA BR OVC015 1-hr Precip Total: 0.01"
2018-09-18 07:05 58 54 - 86 340° 7 - 29.73 - 1 -RA BR OVC016 1-hr Precip Total: 0.01"
2018-09-18 06:56 58 54 - 86 340° 6 - 29.72 - 0 -RA BR OVC016 1-hr Precip Total: Trace
2018-09-18 06:53 58 54 - 86 340° 7 - 29.73 29.71 2 -RA BR OVC017 1-hr Precip Total: 0.01"
2018-09-18 06:20 58 53 - 83 - Calm - 29.72 - 10 BKN020 BKN060 OVC080 1-hr Precip Total: Trace
2018-09-18 05:53 58 53 - 83 230° 3 - 29.72 29.70 4 +RA FEW045 BKN075 OVC090 1-hr Precip Total: 0.05"
2018-09-18 04:53 58 52 - 80 270° 6 - 29.71 29.70 10 -RA FEW060 BKN110 1-hr Precip Total: Trace
6-hr Precip Total (5am): 0.00"
2018-09-18 03:53 59 53 - 80 350° 13 - 29.74 29.72 10 FEW080 None
2018-09-18 02:53 70 60 - 70 270° 12 - 29.72 29.69 10 CLR None
2018-09-18 01:53 70 60 - 70 260° 12 - 29.72 29.69 10 CLR 6-hr Min Temp (2am): 70.0°F
6-hr Max Temp (2am): 75.9°F
2018-09-18 00:53 70 60 - 70 260° 9 - 29.72 29.70 10 CLR 24-hr Min Temp (1am): 59.0°F
24-hr Max Temp (1am): 86.0°F
2018-09-17 23:53 71 60 76 68 240° 7 - 29.74 29.72 10 FEW110 None

Support USWX by starting your Amazon purchase here.